Time;durP1;ratioP1;P1;durP2;ratioP2;P2;SDS_P1;SDS_P2;PMS_P1;PMS_P2;Temp;Humidity;BMP_temperature;BMP_pressure;BME280_temperature;BME280_humidity;BME280_pressure;Samples;Min_cycle;Max_cycle;Signal;HPM_P1;HPM_P2
2021/03/23 00:00:38;;;;;;;17.00;12.20;;;7.10;99.90;;;;;;5012859;28;20677;-64
2021/03/23 00:03:13;;;;;;;14.73;11.57;;;7.10;99.90;;;;;;5013698;28;20178;-65
2021/03/23 00:05:40;;;;;;;16.83;12.13;;;7.10;99.90;;;;;;5013450;28;20222;-65
2021/03/23 00:08:19;;;;;;;16.40;11.20;;;7.10;99.90;;;;;;5013754;28;20238;-66
2021/03/23 00:10:45;;;;;;;15.83;11.50;;;7.10;99.90;;;;;;5012687;28;20180;-65
2021/03/23 00:13:11;;;;;;;17.23;12.60;;;7.10;99.90;;;;;;5012840;28;20198;-65
2021/03/23 00:15:36;;;;;;;18.90;13.70;;;7.10;99.90;;;;;;5012946;28;20279;-64
2021/03/23 00:18:08;;;;;;;18.57;14.53;;;7.10;99.90;;;;;;5013652;28;20229;-65
2021/03/23 00:20:33;;;;;;;20.00;14.20;;;7.00;99.90;;;;;;5013021;28;20215;-64
2021/03/23 00:22:59;;;;;;;20.20;15.37;;;7.20;99.90;;;;;;5013187;28;20180;-65
2021/03/23 00:25:25;;;;;;;25.93;15.70;;;7.20;99.90;;;;;;5012582;28;20596;-65
2021/03/23 00:27:50;;;;;;;24.53;17.10;;;7.20;99.90;;;;;;5013129;28;20186;-65
2021/03/23 00:30:17;;;;;;;21.03;16.70;;;7.20;99.90;;;;;;5012644;28;20552;-65
2021/03/23 00:32:42;;;;;;;18.67;13.27;;;7.20;99.90;;;;;;5013076;28;20787;-64
2021/03/23 00:35:09;;;;;;;26.00;18.93;;;7.20;99.90;;;;;;5012816;28;20184;-65
2021/03/23 00:37:36;;;;;;;24.20;16.63;;;7.20;99.90;;;;;;5012839;28;20191;-64
2021/03/23 00:40:04;;;;;;;32.63;19.50;;;7.20;99.90;;;;;;5012792;28;20196;-65
2021/03/23 00:42:30;;;;;;;30.57;21.80;;;7.20;99.90;;;;;;5012418;28;20173;-65
2021/03/23 00:44:56;;;;;;;30.27;17.73;;;7.20;99.90;;;;;;5013104;28;20264;-65
2021/03/23 00:47:21;;;;;;;21.70;14.23;;;7.20;99.90;;;;;;5012379;28;20278;-64
2021/03/23 00:49:47;;;;;;;21.60;13.70;;;7.20;99.90;;;;;;5011181;28;20176;-65
2021/03/23 00:52:12;;;;;;;20.80;14.50;;;7.10;99.90;;;;;;5012724;28;20222;-64
2021/03/23 00:54:38;;;;;;;25.47;15.27;;;7.20;99.90;;;;;;5012388;28;20184;-65
2021/03/23 00:57:04;;;;;;;31.87;21.90;;;7.00;99.90;;;;;;5012332;28;20266;-65
2021/03/23 00:59:29;;;;;;;24.80;16.07;;;7.00;99.90;;;;;;5012341;28;20210;-64
2021/03/23 01:01:55;;;;;;;22.13;15.77;;;7.10;99.90;;;;;;5012142;28;20176;-65
2021/03/23 01:04:21;;;;;;;24.47;15.07;;;7.10;99.90;;;;;;5011943;28;20180;-65
2021/03/23 01:06:47;;;;;;;25.20;14.50;;;7.10;99.90;;;;;;5012515;28;20200;-65
2021/03/23 01:09:13;;;;;;;23.77;13.17;;;6.90;99.90;;;;;;5012294;28;20682;-65
2021/03/23 01:11:38;;;;;;;24.60;15.53;;;6.80;99.90;;;;;;5012679;28;20206;-65
2021/03/23 01:14:04;;;;;;;21.53;14.40;;;6.80;99.90;;;;;;5013652;28;20654;-64
2021/03/23 01:16:29;;;;;;;25.30;15.00;;;6.80;99.90;;;;;;5013227;28;20195;-65
2021/03/23 01:18:55;;;;;;;23.63;15.00;;;6.80;99.90;;;;;;5012290;28;20176;-65
2021/03/23 01:21:21;;;;;;;28.83;16.33;;;6.70;99.90;;;;;;5011616;28;20204;-65
2021/03/23 01:23:46;;;;;;;21.73;14.20;;;6.70;99.90;;;;;;5012435;28;20172;-66
2021/03/23 01:26:12;;;;;;;24.87;15.80;;;6.70;99.90;;;;;;5012021;28;20708;-64
2021/03/23 01:28:38;;;;;;;23.67;15.40;;;6.80;99.90;;;;;;5012126;28;20247;-65
2021/03/23 01:31:03;;;;;;;27.47;15.97;;;6.80;99.90;;;;;;5011434;28;20211;-65
2021/03/23 01:33:29;;;;;;;25.60;15.83;;;6.70;99.90;;;;;;5011949;28;20274;-65
2021/03/23 01:35:55;;;;;;;28.57;16.93;;;6.70;99.90;;;;;;5012041;28;20286;-65
2021/03/23 01:38:20;;;;;;;23.73;15.83;;;6.60;99.90;;;;;;5011659;28;20833;-64
2021/03/23 01:40:47;;;;;;;24.00;16.63;;;6.50;99.90;;;;;;5011373;28;20215;-64
2021/03/23 01:43:25;;;;;;;25.27;16.57;;;6.60;99.90;;;;;;5010776;28;20192;-64
2021/03/23 01:45:51;;;;;;;24.33;17.20;;;6.50;99.90;;;;;;5011621;28;20206;-65
2021/03/23 01:48:26;;;;;;;30.47;18.50;;;6.50;99.90;;;;;;5012425;28;20249;-65
2021/03/23 01:50:55;;;;;;;25.83;18.30;;;6.50;99.90;;;;;;5011516;28;20175;-66
2021/03/23 01:53:35;;;;;;;28.90;18.27;;;6.50;99.90;;;;;;5011889;28;20728;-65
2021/03/23 01:56:01;;;;;;;34.90;20.40;;;6.50;99.90;;;;;;5011817;28;20214;-64
2021/03/23 01:58:28;;;;;;;31.83;19.80;;;6.40;99.90;;;;;;5011276;28;20188;-65
2021/03/23 02:00:54;;;;;;;29.93;20.53;;;6.40;99.90;;;;;;5010498;28;20211;-63
2021/03/23 02:03:21;;;;;;;31.90;19.57;;;6.40;99.90;;;;;;5011726;28;20172;-66
2021/03/23 02:05:58;;;;;;;30.37;20.27;;;6.40;99.90;;;;;;5011553;28;20203;-63
2021/03/23 02:08:24;;;;;;;29.77;19.87;;;6.50;99.90;;;;;;5011635;28;20176;-63
2021/03/23 02:10:53;;;;;;;33.47;20.00;;;6.50;99.90;;;;;;5011433;28;20202;-62
2021/03/23 02:13:19;;;;;;;31.07;19.97;;;6.40;99.90;;;;;;5011675;28;20188;-62
2021/03/23 02:15:45;;;;;;;34.93;21.10;;;6.40;99.90;;;;;;5011477;28;20729;-62
2021/03/23 02:18:15;;;;;;;35.17;20.43;;;6.40;99.90;;;;;;5011715;28;20271;-64
2021/03/23 02:21:08;;;;;;;31.33;20.43;;;6.50;99.90;;;;;;5011082;28;20214;-63
2021/03/23 02:23:40;;;;;;;34.93;23.10;;;6.40;99.90;;;;;;5011573;28;20179;-63
2021/03/23 02:26:10;;;;;;;33.70;21.87;;;6.40;99.90;;;;;;5011829;28;20678;-62
2021/03/23 02:28:53;;;;;;;32.47;22.07;;;6.40;99.90;;;;;;5011246;28;20204;-62
2021/03/23 02:31:25;;;;;;;32.67;21.27;;;6.40;99.90;;;;;;5011231;28;20654;-63
2021/03/23 02:33:51;;;;;;;34.50;22.27;;;6.40;99.90;;;;;;5011736;28;20184;-63
2021/03/23 02:36:17;;;;;;;31.90;21.83;;;6.40;99.90;;;;;;5011325;28;20200;-63
2021/03/23 02:38:42;;;;;;;35.20;22.30;;;6.40;99.90;;;;;;5011279;28;20180;-63
2021/03/23 02:41:08;;;;;;;34.47;21.57;;;6.40;99.90;;;;;;5009945;28;20478;-63
2021/03/23 02:43:34;;;;;;;33.87;22.17;;;6.50;99.90;;;;;;5011184;28;20203;-63
2021/03/23 02:45:59;;;;;;;33.87;22.37;;;6.50;99.90;;;;;;5011194;28;20628;-64
2021/03/23 02:48:25;;;;;;;32.47;22.27;;;6.50;99.90;;;;;;5009860;28;20177;-64
2021/03/23 02:50:52;;;;;;;37.00;23.03;;;6.50;99.90;;;;;;5012073;28;20231;-63
2021/03/23 02:53:17;;;;;;;34.47;24.00;;;6.60;99.90;;;;;;5014994;28;20176;-64
2021/03/23 02:55:46;;;;;;;34.53;22.67;;;6.50;99.90;;;;;;5015224;28;20211;-64
2021/03/23 02:58:13;;;;;;;36.73;22.87;;;6.50;99.90;;;;;;5015004;28;20176;-65
2021/03/23 03:00:39;;;;;;;32.40;21.73;;;6.50;99.90;;;;;;5014384;28;20211;-64
2021/03/23 03:03:05;;;;;;;33.37;22.93;;;6.60;99.90;;;;;;5013706;28;20177;-65
2021/03/23 03:05:31;;;;;;;35.10;24.03;;;6.50;99.90;;;;;;5014727;28;20690;-65
2021/03/23 03:07:57;;;;;;;34.47;22.77;;;6.50;99.90;;;;;;5014902;28;20176;-65
2021/03/23 03:10:22;;;;;;;34.60;22.03;;;6.50;99.90;;;;;;5014650;28;20175;-65
2021/03/23 03:12:48;;;;;;;36.33;21.97;;;6.50;99.90;;;;;;5014600;28;20184;-65
2021/03/23 03:15:14;;;;;;;34.00;21.23;;;6.50;99.90;;;;;;5014856;28;20230;-65
2021/03/23 03:17:40;;;;;;;32.93;22.50;;;6.50;99.90;;;;;;5014601;28;20172;-65
2021/03/23 03:20:07;;;;;;;31.63;21.90;;;6.50;99.90;;;;;;5014426;28;20223;-65
2021/03/23 03:22:34;;;;;;;37.03;21.63;;;6.60;99.90;;;;;;5014357;28;20176;-66
2021/03/23 03:24:59;;;;;;;34.20;21.73;;;6.50;99.90;;;;;;5014754;28;20181;-65
2021/03/23 03:27:25;;;;;;;37.37;22.33;;;6.50;99.90;;;;;;5014464;28;20196;-65
2021/03/23 03:29:50;;;;;;;33.07;22.07;;;6.60;99.90;;;;;;5014245;28;20180;-65
2021/03/23 03:32:17;;;;;;;35.37;22.10;;;6.60;99.90;;;;;;5014516;28;20182;-65
2021/03/23 03:34:42;;;;;;;32.90;21.70;;;6.60;99.90;;;;;;5014277;28;20180;-65
2021/03/23 03:37:08;;;;;;;32.63;21.27;;;6.60;99.90;;;;;;5014245;28;20200;-66
2021/03/23 03:39:34;;;;;;;32.47;20.83;;;6.60;99.90;;;;;;5014205;28;20386;-66
2021/03/23 03:42:00;;;;;;;31.63;22.23;;;6.50;99.90;;;;;;5014166;28;20638;-65
2021/03/23 03:44:26;;;;;;;33.27;22.63;;;6.50;99.90;;;;;;5014057;28;20202;-64
2021/03/23 03:46:51;;;;;;;33.87;22.27;;;6.40;99.90;;;;;;5014207;28;20283;-65
2021/03/23 03:49:17;;;;;;;33.53;21.30;;;6.40;99.90;;;;;;5014176;28;20172;-65
2021/03/23 03:51:42;;;;;;;38.03;22.73;;;6.40;99.90;;;;;;5013765;28;20347;-65
2021/03/23 03:54:08;;;;;;;39.70;25.00;;;6.50;99.90;;;;;;5014124;28;20611;-65
2021/03/23 03:56:33;;;;;;;42.57;23.33;;;6.50;99.90;;;;;;5013679;28;20306;-66
2021/03/23 03:58:59;;;;;;;34.97;21.83;;;6.40;99.90;;;;;;5014012;28;20258;-65
2021/03/23 04:01:25;;;;;;;38.77;23.60;;;6.40;99.90;;;;;;5012940;28;20269;-65
2021/03/23 04:03:50;;;;;;;37.40;23.67;;;6.40;99.90;;;;;;5013981;28;20181;-66
2021/03/23 04:06:16;;;;;;;35.93;21.87;;;6.40;99.90;;;;;;5013904;28;20196;-65
2021/03/23 04:08:42;;;;;;;37.27;23.00;;;6.40;99.90;;;;;;5013745;28;20180;-66
2021/03/23 04:11:10;;;;;;;35.17;23.00;;;6.30;99.90;;;;;;5013296;28;20183;-65
2021/03/23 04:13:36;;;;;;;39.67;22.47;;;6.40;99.90;;;;;;5013424;28;20172;-64
2021/03/23 04:16:02;;;;;;;34.53;22.10;;;6.50;99.90;;;;;;5013578;28;20335;-65
2021/03/23 04:18:29;;;;;;;37.00;24.13;;;6.50;99.90;;;;;;5013260;28;20645;-65
2021/03/23 04:20:57;;;;;;;31.70;21.47;;;6.40;99.90;;;;;;5013003;28;20666;-65
2021/03/23 04:23:27;;;;;;;41.47;21.70;;;6.40;99.90;;;;;;5013515;28;20216;-66
2021/03/23 04:25:53;;;;;;;36.80;21.90;;;6.40;99.90;;;;;;5013175;28;20250;-65
2021/03/23 04:28:19;;;;;;;37.07;22.47;;;6.40;99.90;;;;;;5013784;28;20182;-65
2021/03/23 04:30:46;;;;;;;35.93;22.20;;;6.40;99.90;;;;;;5012799;28;20180;-65
2021/03/23 04:33:12;;;;;;;30.77;19.63;;;6.40;99.90;;;;;;5013205;28;20180;-65
2021/03/23 04:35:41;;;;;;;31.07;20.27;;;6.50;99.90;;;;;;5012989;28;20192;-65
2021/03/23 04:38:08;;;;;;;35.60;21.93;;;6.50;99.90;;;;;;5013109;28;20723;-65
2021/03/23 04:40:34;;;;;;;33.20;22.47;;;6.40;99.90;;;;;;5012587;28;20286;-66
2021/03/23 04:42:59;;;;;;;32.93;20.77;;;6.40;99.90;;;;;;5013059;28;20696;-65
2021/03/23 04:45:25;;;;;;;31.57;20.47;;;6.30;99.90;;;;;;5012829;28;20613;-65
2021/03/23 04:47:50;;;;;;;34.07;21.83;;;6.40;99.90;;;;;;5012789;28;20179;-65
2021/03/23 04:50:18;;;;;;;33.37;21.37;;;6.40;99.90;;;;;;5012544;28;20183;-64
2021/03/23 04:52:44;;;;;;;38.07;20.93;;;6.40;99.90;;;;;;5011255;28;20238;-65
2021/03/23 04:55:10;;;;;;;40.07;23.07;;;6.40;99.90;;;;;;5012515;28;20581;-65
2021/03/23 04:57:36;;;;;;;29.80;19.83;;;6.40;99.90;;;;;;5012595;28;20258;-64
2021/03/23 05:00:08;;;;;;;36.07;20.83;;;6.40;99.90;;;;;;5012330;28;20302;-65
2021/03/23 05:02:33;;;;;;;35.07;21.07;;;6.40;99.90;;;;;;5012357;28;20172;-65
2021/03/23 05:04:59;;;;;;;39.83;21.87;;;6.40;99.90;;;;;;5012851;28;20172;-65
2021/03/23 05:07:25;;;;;;;32.73;21.30;;;6.40;99.90;;;;;;5012648;28;20673;-65
2021/03/23 05:09:51;;;;;;;35.60;22.23;;;6.40;99.90;;;;;;5012387;28;20179;-64
2021/03/23 05:12:17;;;;;;;37.23;21.73;;;6.40;99.90;;;;;;5012705;28;20256;-65
2021/03/23 05:14:42;;;;;;;38.60;22.33;;;6.50;99.90;;;;;;5012080;28;20776;-65
2021/03/23 05:17:09;;;;;;;37.10;21.73;;;6.40;99.90;;;;;;5013088;28;20279;-65
2021/03/23 05:19:35;;;;;;;43.17;24.27;;;6.40;99.90;;;;;;5012289;28;20211;-64
2021/03/23 05:22:01;;;;;;;40.83;23.33;;;6.40;99.90;;;;;;5012118;28;20642;-64
2021/03/23 05:24:27;;;;;;;36.90;22.70;;;6.40;99.90;;;;;;5012089;28;20183;-64
2021/03/23 05:26:52;;;;;;;32.53;21.03;;;6.40;99.90;;;;;;5012152;28;20184;-66
2021/03/23 05:29:18;;;;;;;39.00;23.10;;;6.40;99.90;;;;;;5012205;28;20184;-65
2021/03/23 05:31:46;;;;;;;41.07;24.73;;;6.40;99.90;;;;;;5011854;28;20251;-65
2021/03/23 05:34:13;;;;;;;42.30;23.53;;;6.50;99.90;;;;;;5012194;28;20638;-66
2021/03/23 05:36:41;;;;;;;36.57;22.87;;;6.50;99.90;;;;;;5011744;28;20200;-65
2021/03/23 05:39:07;;;;;;;37.40;22.37;;;6.50;99.90;;;;;;5012254;28;20231;-65
2021/03/23 05:41:56;;;;;;;34.43;23.00;;;6.60;99.90;;;;;;5011700;28;20530;-65
2021/03/23 05:45:01;;;;;;;41.63;23.13;;;6.70;99.90;;;;;;5012007;28;20656;-64
2021/03/23 05:47:36;;;;;;;35.93;22.47;;;6.70;99.90;;;;;;5012032;28;20180;-66
2021/03/23 05:50:28;;;;;;;36.97;22.40;;;6.60;99.90;;;;;;5011686;28;20186;-65
2021/03/23 05:52:53;;;;;;;40.97;24.17;;;6.60;99.90;;;;;;5011180;28;20563;-64
2021/03/23 05:55:40;;;;;;;36.83;21.60;;;6.60;99.90;;;;;;5011538;28;20188;-65
2021/03/23 05:58:14;;;;;;;37.83;22.70;;;6.60;99.90;;;;;;5011808;28;20299;-64
2021/03/23 06:00:41;;;;;;;46.00;23.63;;;6.60;99.90;;;;;;5011131;28;20208;-65
2021/03/23 06:03:40;;;;;;;41.57;21.33;;;6.60;99.90;;;;;;5011743;28;20251;-65
2021/03/23 06:06:40;;;;;;;38.93;21.97;;;6.60;99.90;;;;;;5011462;28;20208;-65
2021/03/23 06:09:09;;;;;;;39.73;21.50;;;6.60;99.90;;;;;;5011433;28;20176;-65
2021/03/23 06:11:41;;;;;;;50.73;23.80;;;6.70;99.90;;;;;;5011322;28;20186;-65
2021/03/23 06:14:23;;;;;;;36.17;21.33;;;6.80;99.90;;;;;;5011729;28;20175;-65
2021/03/23 06:16:51;;;;;;;36.47;22.37;;;6.80;99.90;;;;;;5011309;28;20290;-65
2021/03/23 06:19:42;;;;;;;32.03;22.13;;;6.80;99.90;;;;;;5011719;28;20624;-65
2021/03/23 06:22:27;;;;;;;35.57;21.33;;;6.70;99.90;;;;;;5011249;28;20173;-65
2021/03/23 06:25:13;;;;;;;38.07;21.20;;;6.80;99.90;;;;;;5012421;28;20630;-64
2021/03/23 06:27:46;;;;;;;38.33;21.93;;;6.90;99.90;;;;;;5015523;28;20187;-65
2021/03/23 06:30:57;;;;;;;35.60;22.73;;;7.00;99.90;;;;;;5015194;28;20661;-65
2021/03/23 06:33:26;;;;;;;39.87;22.23;;;7.10;99.90;;;;;;5015155;28;20206;-65
2021/03/23 06:35:57;;;;;;;35.90;22.87;;;7.20;99.90;;;;;;5015288;28;20219;-65
2021/03/23 06:38:41;;;;;;;37.37;21.90;;;7.30;99.90;;;;;;5015650;28;20176;-64
2021/03/23 06:41:32;;;;;;;32.63;21.37;;;7.30;99.90;;;;;;5014979;28;20210;-64
2021/03/23 06:44:14;;;;;;;36.27;21.93;;;7.30;99.90;;;;;;5015334;28;20554;-64
2021/03/23 06:46:45;;;;;;;30.37;19.57;;;7.30;99.90;;;;;;5014887;28;20692;-64
2021/03/23 06:49:14;;;;;;;31.63;18.93;;;7.30;99.90;;;;;;5015441;28;20176;-66
2021/03/23 06:51:55;;;;;;;33.17;20.30;;;7.30;99.90;;;;;;5014817;28;20176;-65
2021/03/23 06:54:25;;;;;;;28.93;18.23;;;7.40;99.90;;;;;;5015097;28;20172;-64
2021/03/23 06:57:00;;;;;;;31.03;20.57;;;7.40;99.90;;;;;;5014844;28;20751;-63
2021/03/23 06:59:26;;;;;;;34.67;20.33;;;7.40;99.90;;;;;;5013752;28;20187;-64
2021/03/23 07:02:00;;;;;;;38.47;20.80;;;7.40;99.90;;;;;;5014543;28;20173;-64
2021/03/23 07:04:36;;;;;;;30.33;19.93;;;7.50;99.90;;;;;;5014842;28;20203;-64
2021/03/23 07:07:20;;;;;;;27.37;19.50;;;7.50;99.90;;;;;;5015462;28;20696;-64
2021/03/23 07:09:51;;;;;;;34.40;20.17;;;7.40;99.90;;;;;;5014680;28;20172;-64
2021/03/23 07:12:35;;;;;;;31.20;20.60;;;7.30;99.90;;;;;;5014675;28;20255;-63
2021/03/23 07:15:15;;;;;;;30.23;18.97;;;7.40;99.90;;;;;;5014469;28;20188;-63
2021/03/23 07:17:47;;;;;;;34.83;19.83;;;7.40;99.90;;;;;;5014882;28;20263;-64
2021/03/23 07:20:28;;;;;;;34.93;19.70;;;7.50;99.90;;;;;;5014224;28;20207;-64
2021/03/23 07:22:54;;;;;;;37.60;21.30;;;7.40;99.90;;;;;;5014581;28;20570;-64
2021/03/23 07:25:41;;;;;;;35.93;21.37;;;7.50;99.90;;;;;;5014251;28;20173;-66
2021/03/23 07:28:33;;;;;;;32.87;21.23;;;7.50;99.90;;;;;;5014471;28;20181;-64
2021/03/23 07:31:18;;;;;;;31.73;19.20;;;7.60;99.90;;;;;;5014057;28;20188;-64
2021/03/23 07:34:05;;;;;;;39.53;20.80;;;7.60;99.90;;;;;;5014164;28;20184;-63
2021/03/23 07:36:53;;;;;;;31.53;20.40;;;7.60;99.90;;;;;;5012875;28;20207;-65
2021/03/23 07:39:25;;;;;;;33.17;19.67;;;7.70;99.90;;;;;;5014118;28;20188;-63
2021/03/23 07:42:02;;;;;;;31.60;18.57;;;7.70;99.90;;;;;;5013854;28;20180;-65
2021/03/23 07:44:37;;;;;;;25.83;18.33;;;7.70;99.90;;;;;;5014168;28;20176;-65
2021/03/23 07:47:17;;;;;;;32.50;18.83;;;7.80;99.90;;;;;;5012719;28;20673;-66
2021/03/23 07:50:01;;;;;;;28.50;18.87;;;7.80;99.90;;;;;;5013639;28;20187;-65
2021/03/23 07:52:48;;;;;;;30.73;18.03;;;7.90;99.90;;;;;;5013770;28;20665;-66
2021/03/23 07:55:26;;;;;;;33.67;20.23;;;8.00;99.90;;;;;;5013688;28;20184;-64
2021/03/23 07:58:13;;;;;;;28.43;17.70;;;8.10;99.90;;;;;;5013686;28;20172;-64
2021/03/23 08:01:11;;;;;;;28.33;18.10;;;8.20;99.90;;;;;;5013360;28;20222;-64
2021/03/23 08:04:01;;;;;;;23.13;16.57;;;8.30;99.90;;;;;;5013642;28;20662;-64
2021/03/23 08:06:55;;;;;;;30.73;18.70;;;8.40;99.90;;;;;;5012725;28;20750;-64
2021/03/23 08:10:14;;;;;;;33.37;21.07;;;8.40;99.90;;;;;;5013595;28;20180;-64
2021/03/23 08:13:03;;;;;;;28.87;18.60;;;8.40;99.90;;;;;;4974753;28;20219;-64
2021/03/23 08:15:50;;;;;;;27.20;16.17;;;8.50;99.90;;;;;;4991441;28;20229;-64
2021/03/23 08:18:47;;;;;;;26.63;17.43;;;8.60;99.90;;;;;;5008294;28;20249;-64
2021/03/23 08:21:15;;;;;;;31.10;18.97;;;8.80;99.90;;;;;;5013029;28;20212;-64
2021/03/23 08:24:08;;;;;;;24.90;16.80;;;8.80;99.90;;;;;;5013176;28;20176;-64
2021/03/23 08:26:43;;;;;;;29.47;17.27;;;8.90;99.90;;;;;;5013152;28;20243;-65
2021/03/23 08:29:33;;;;;;;27.50;17.30;;;9.10;99.90;;;;;;5013247;28;20172;-64
2021/03/23 08:32:39;;;;;;;25.63;17.33;;;9.20;99.90;;;;;;5012785;28;20184;-64
2021/03/23 08:35:20;;;;;;;24.30;17.53;;;9.30;99.90;;;;;;4990446;28;20181;-66
2021/03/23 08:38:09;;;;;;;26.27;15.53;;;9.40;99.90;;;;;;5011750;28;20199;-64
2021/03/23 08:40:44;;;;;;;22.77;16.70;;;9.50;99.90;;;;;;5012668;28;20262;-64
2021/03/23 08:43:15;;;;;;;28.77;16.17;;;9.60;99.90;;;;;;5013333;28;20250;-62
2021/03/23 08:45:48;;;;;;;22.47;16.10;;;9.50;99.90;;;;;;5012729;28;20184;-64
2021/03/23 08:48:33;;;;;;;29.73;16.27;;;9.60;99.90;;;;;;5011671;28;20680;-63
2021/03/23 08:51:03;;;;;;;24.97;16.10;;;9.60;99.90;;;;;;5012531;28;20279;-64
2021/03/23 08:53:28;;;;;;;25.27;16.17;;;9.60;99.90;;;;;;5012609;28;20188;-64
2021/03/23 08:58:37;;;;;;;23.87;16.27;;;9.80;99.90;;;;;;5030814;28;20282;-64
2021/03/23 09:01:05;;;;;;;21.87;15.27;;;9.70;99.90;;;;;;5028610;28;20192;-65
2021/03/23 09:03:46;;;;;;;25.57;16.27;;;9.80;99.90;;;;;;5024647;28;20580;-64
2021/03/23 09:06:15;;;;;;;25.33;15.03;;;9.80;99.90;;;;;;5020778;28;20213;-64
2021/03/23 09:08:45;;;;;;;24.97;16.67;;;10.00;99.90;;;;;;5031914;28;20710;-65
2021/03/23 09:11:10;;;;;;;22.83;15.13;;;10.10;99.90;;;;;;5032405;28;20179;-64
2021/03/23 09:13:36;;;;;;;27.43;16.43;;;10.20;99.90;;;;;;5031806;28;20569;-64
2021/03/23 09:16:42;;;;;;;26.63;16.60;;;10.30;99.90;;;;;;5032053;28;20286;-64
2021/03/23 09:19:09;;;;;;;24.30;15.07;;;10.40;99.90;;;;;;5031723;28;20718;-64
2021/03/23 09:21:59;;;;;;;21.27;14.00;;;10.70;99.90;;;;;;5031533;28;20199;-65
2021/03/23 09:24:37;;;;;;;23.03;14.90;;;10.70;99.90;;;;;;5012208;28;20180;-64
2021/03/23 09:27:09;;;;;;;25.93;15.73;;;10.80;99.90;;;;;;5012861;28;20206;-65
2021/03/23 09:29:45;;;;;;;23.00;14.37;;;10.80;99.90;;;;;;5031857;28;20172;-64
2021/03/23 09:32:39;;;;;;;24.27;16.20;;;11.10;99.90;;;;;;5031705;28;20175;-64
2021/03/23 09:35:09;;;;;;;28.87;16.23;;;11.20;99.90;;;;;;5029866;28;20226;-64
2021/03/23 09:37:35;;;;;;;23.43;14.67;;;11.30;99.90;;;;;;5030979;28;20187;-65
2021/03/23 09:40:21;;;;;;;26.43;15.37;;;11.50;99.90;;;;;;5031516;28;20195;-64
2021/03/23 09:43:08;;;;;;;25.27;13.93;;;11.60;99.90;;;;;;5031044;28;20226;-65
2021/03/23 09:45:38;;;;;;;22.40;14.30;;;11.60;99.90;;;;;;5031602;28;20656;-65
2021/03/23 09:48:13;;;;;;;22.80;13.07;;;11.90;99.90;;;;;;5031514;28;20183;-64
2021/03/23 09:50:51;;;;;;;26.93;16.27;;;12.30;99.90;;;;;;5031014;28;20171;-64
2021/03/23 09:53:29;;;;;;;31.70;18.50;;;12.50;99.90;;;;;;5031465;28;20191;-65
2021/03/23 09:56:14;;;;;;;28.67;15.43;;;12.70;99.90;;;;;;5031471;28;20248;-65
2021/03/23 09:58:41;;;;;;;26.50;13.90;;;13.10;99.90;;;;;;5031002;28;20191;-65
2021/03/23 10:01:17;;;;;;;20.30;12.47;;;13.80;99.90;;;;;;5030698;28;20245;-65
2021/03/23 10:03:43;;;;;;;18.03;12.27;;;14.10;99.90;;;;;;5031205;28;20262;-64
2021/03/23 10:06:20;;;;;;;21.00;13.13;;;14.00;99.90;;;;;;5031306;28;20188;-64
2021/03/23 10:08:58;;;;;;;25.07;14.37;;;13.90;99.90;;;;;;5031035;28;20183;-64
2021/03/23 10:11:26;;;;;;;23.47;14.03;;;13.40;99.90;;;;;;5030843;28;20657;-65
2021/03/23 10:13:58;;;;;;;20.33;13.80;;;13.30;99.90;;;;;;5031289;28;20179;-65
2021/03/23 10:16:26;;;;;;;19.97;12.77;;;13.00;99.90;;;;;;5031040;28;20290;-65
2021/03/23 10:18:51;;;;;;;25.07;12.57;;;12.90;99.90;;;;;;5031337;28;20176;-64
2021/03/23 10:21:25;;;;;;;22.10;12.90;;;12.60;99.90;;;;;;5030546;28;20299;-65
2021/03/23 10:23:56;;;;;;;22.77;14.03;;;12.70;99.90;;;;;;5031533;28;20167;-64
2021/03/23 10:26:25;;;;;;;21.13;12.10;;;12.60;99.90;;;;;;5031429;28;20196;-65
2021/03/23 10:28:55;;;;;;;20.13;12.17;;;12.60;99.90;;;;;;5031128;28;20187;-65
2021/03/23 10:31:40;;;;;;;18.77;11.83;;;12.60;99.90;;;;;;5030794;28;20609;-65
2021/03/23 10:34:17;;;;;;;18.27;12.40;;;12.80;99.90;;;;;;5030953;28;20167;-65
2021/03/23 10:36:52;;;;;;;20.00;11.90;;;12.90;99.90;;;;;;5030716;28;20203;-65
2021/03/23 10:39:34;;;;;;;20.20;10.93;;;13.10;99.90;;;;;;5030913;28;20179;-65
2021/03/23 10:42:11;;;;;;;18.63;11.47;;;13.10;99.90;;;;;;5030839;28;20175;-65
2021/03/23 10:44:37;;;;;;;14.63;10.17;;;13.20;99.90;;;;;;5030787;28;20180;-65
2021/03/23 10:47:03;;;;;;;17.60;11.10;;;13.10;99.90;;;;;;5030750;28;20206;-64
2021/03/23 10:49:33;;;;;;;17.80;12.03;;;13.10;99.90;;;;;;5031082;28;20274;-64
2021/03/23 10:52:16;;;;;;;22.50;11.67;;;13.00;99.90;;;;;;5030946;28;20191;-65
2021/03/23 10:54:42;;;;;;;19.67;11.73;;;13.10;99.90;;;;;;5029209;28;20210;-65
2021/03/23 10:57:30;;;;;;;17.90;11.63;;;13.30;99.90;;;;;;5030851;28;20234;-65
2021/03/23 11:00:13;;;;;;;16.40;11.23;;;13.60;99.90;;;;;;5030214;28;20253;-64
2021/03/23 11:02:39;;;;;;;16.73;11.73;;;13.80;99.90;;;;;;5030434;28;20648;-65
2021/03/23 11:05:10;;;;;;;24.43;14.37;;;13.90;99.90;;;;;;5030454;28;20167;-65
2021/03/23 11:07:56;;;;;;;21.53;12.43;;;13.90;99.90;;;;;;5029384;28;20196;-64
2021/03/23 11:10:26;;;;;;;18.47;12.50;;;14.00;99.90;;;;;;5030651;28;20387;-64
2021/03/23 11:12:51;;;;;;;20.80;13.77;;;14.00;99.90;;;;;;5033364;28;20257;-64
2021/03/23 11:15:17;;;;;;;24.40;14.07;;;13.80;99.90;;;;;;5034527;28;20175;-65
2021/03/23 11:17:47;;;;;;;21.37;13.37;;;13.20;99.90;;;;;;5034162;28;20286;-64
2021/03/23 11:20:35;;;;;;;22.23;12.83;;;13.00;99.90;;;;;;5034067;28;20199;-65
2021/03/23 11:23:04;;;;;;;23.30;13.50;;;12.90;99.90;;;;;;5033878;28;20206;-64
2021/03/23 11:25:31;;;;;;;19.13;13.00;;;12.90;99.90;;;;;;5033625;28;20195;-65
2021/03/23 11:27:57;;;;;;;18.47;12.50;;;12.90;99.90;;;;;;5034269;28;20171;-65
2021/03/23 11:30:24;;;;;;;24.87;14.77;;;12.80;99.90;;;;;;5034132;28;20254;-64
2021/03/23 11:32:50;;;;;;;23.40;13.50;;;12.60;99.90;;;;;;5033808;28;20225;-65
2021/03/23 11:35:17;;;;;;;23.40;14.40;;;12.60;99.90;;;;;;5034155;28;20648;-65
2021/03/23 11:37:43;;;;;;;21.40;13.30;;;12.50;99.90;;;;;;5033857;28;20192;-64
2021/03/23 11:40:10;;;;;;;23.70;14.53;;;12.70;99.90;;;;;;5033628;28;20199;-64
2021/03/23 11:42:42;;;;;;;25.40;14.40;;;12.80;99.90;;;;;;5033704;28;20176;-65
2021/03/23 11:45:19;;;;;;;27.90;14.93;;;12.80;99.90;;;;;;5034215;28;20641;-64
2021/03/23 11:47:54;;;;;;;21.83;13.20;;;12.80;99.90;;;;;;5033721;28;20546;-65
2021/03/23 11:50:24;;;;;;;22.67;14.07;;;12.60;99.90;;;;;;5033412;28;20178;-65
2021/03/23 11:52:52;;;;;;;21.17;14.27;;;12.70;99.90;;;;;;5032152;28;20195;-64
2021/03/23 11:55:24;;;;;;;20.47;13.50;;;12.70;99.90;;;;;;5034550;28;20179;-65
2021/03/23 11:57:51;;;;;;;24.80;15.13;;;12.80;99.90;;;;;;5033428;28;20699;-64
2021/03/23 12:00:18;;;;;;;26.33;15.03;;;12.70;99.90;;;;;;5033301;28;20290;-65
2021/03/23 12:02:44;;;;;;;26.53;16.93;;;12.60;99.90;;;;;;5033178;28;20673;-64
2021/03/23 12:05:11;;;;;;;23.30;14.80;;;12.70;99.90;;;;;;5033434;28;20254;-64
2021/03/23 12:08:12;;;;;;;21.47;14.70;;;13.00;99.90;;;;;;5033155;28;20203;-65
2021/03/23 12:10:53;;;;;;;20.57;13.80;;;13.00;99.90;;;;;;5025906;28;20195;-64
2021/03/23 12:13:45;;;;;;;21.33;13.57;;;13.10;99.90;;;;;;5033388;28;20640;-65
2021/03/23 12:16:22;;;;;;;22.30;14.10;;;13.30;99.90;;;;;;5032793;28;20199;-65
2021/03/23 12:18:57;;;;;;;19.93;13.13;;;13.50;99.90;;;;;;5032874;28;20233;-65
2021/03/23 12:21:25;;;;;;;21.87;13.43;;;14.30;99.90;;;;;;5032399;28;20218;-65
2021/03/23 12:23:51;;;;;;;21.23;13.93;;;14.80;99.90;;;;;;5032796;28;20564;-65
2021/03/23 12:26:17;;;;;;;19.80;13.97;;;14.90;99.90;;;;;;5032749;28;20210;-64
2021/03/23 12:28:44;;;;;;;30.47;16.50;;;14.90;99.90;;;;;;5031963;28;20171;-65
2021/03/23 12:31:10;;;;;;;20.00;13.07;;;15.10;99.90;;;;;;5032161;28;20184;-65
2021/03/23 12:33:36;;;;;;;39.17;22.37;;;15.60;99.90;;;;;;5031337;28;20253;-65
2021/03/23 12:36:03;;;;;;;27.57;15.63;;;15.60;99.90;;;;;;5033141;28;20739;-65
2021/03/23 12:38:29;;;;;;;19.73;13.57;;;15.30;99.90;;;;;;5033010;28;20202;-64
2021/03/23 12:40:55;;;;;;;30.93;18.50;;;14.80;99.90;;;;;;5032463;28;20261;-65
2021/03/23 12:43:27;;;;;;;23.33;13.93;;;14.60;99.90;;;;;;5032293;28;20175;-65
2021/03/23 12:45:55;;;;;;;26.00;15.97;;;14.40;99.90;;;;;;5032004;28;20201;-64
2021/03/23 12:48:22;;;;;;;21.60;15.00;;;14.10;99.90;;;;;;5032707;28;20171;-65
2021/03/23 12:50:48;;;;;;;24.03;14.17;;;14.00;99.90;;;;;;5031604;28;20183;-65
2021/03/23 12:53:16;;;;;;;26.23;13.33;;;14.10;99.90;;;;;;5032615;28;20182;-65
2021/03/23 12:55:47;;;;;;;42.30;23.00;;;14.00;99.90;;;;;;5032204;28;20211;-65
2021/03/23 12:58:16;;;;;;;21.97;14.57;;;14.00;99.90;;;;;;5032449;28;20218;-64
2021/03/23 13:00:42;;;;;;;18.17;13.23;;;13.90;99.90;;;;;;5031783;28;20199;-64